Time;durP1;ratioP1;P1;durP2;ratioP2;P2;SDS_P1;SDS_P2;PMS_P1;PMS_P2;Temp;Humidity;BMP_temperature;BMP_pressure;BME280_temperature;BME280_humidity;BME280_pressure;Samples;Min_cycle;Max_cycle;Signal;HPM_P1;HPM_P2
2024/01/11 00:00:15;;;;;;;27.80;9.93;;;-3.70;99.90;;;;;;5012307;28;20544;-52
2024/01/11 00:02:41;;;;;;;28.50;9.47;;;-3.80;99.90;;;;;;5011203;28;20026;-54
2024/01/11 00:05:07;;;;;;;27.70;11.03;;;-3.80;99.90;;;;;;5012500;28;20440;-53
2024/01/11 00:07:33;;;;;;;29.53;9.60;;;-3.80;99.90;;;;;;5012307;28;20034;-53
2024/01/11 00:10:00;;;;;;;31.13;10.60;;;-3.90;99.90;;;;;;5012064;28;20460;-54
2024/01/11 00:12:25;;;;;;;26.33;10.20;;;-3.90;99.90;;;;;;5012262;28;20029;-54
2024/01/11 00:14:51;;;;;;;25.90;9.63;;;-4.00;99.90;;;;;;5012232;28;20598;-54
2024/01/11 00:17:17;;;;;;;28.87;10.43;;;-4.00;99.90;;;;;;5012267;28;20040;-53
2024/01/11 00:19:42;;;;;;;24.97;9.87;;;-4.00;99.90;;;;;;5011832;28;20435;-50
2024/01/11 00:22:08;;;;;;;31.10;10.37;;;-4.10;99.90;;;;;;5011928;28;20033;-55
2024/01/11 00:24:33;;;;;;;37.20;11.20;;;-4.10;99.90;;;;;;5012319;28;20049;-55
2024/01/11 00:26:59;;;;;;;28.80;10.93;;;-4.10;99.90;;;;;;5012142;28;20033;-55
2024/01/11 00:29:24;;;;;;;32.27;11.43;;;-4.10;99.90;;;;;;5011981;28;20113;-50
2024/01/11 00:31:50;;;;;;;26.77;9.80;;;-4.10;99.90;;;;;;5012092;28;20084;-50
2024/01/11 00:34:15;;;;;;;37.50;11.03;;;-4.20;99.90;;;;;;5012140;28;20030;-51
2024/01/11 00:36:41;;;;;;;28.20;10.17;;;-4.20;99.90;;;;;;5011949;28;20068;-50
2024/01/11 00:39:07;;;;;;;31.03;10.33;;;-4.20;99.90;;;;;;5011928;28;20025;-54
2024/01/11 00:41:32;;;;;;;35.40;11.70;;;-4.20;99.90;;;;;;5011823;28;20026;-50
2024/01/11 00:43:58;;;;;;;28.53;10.00;;;-4.20;99.90;;;;;;5012005;28;20037;-55
2024/01/11 00:46:23;;;;;;;31.73;10.90;;;-4.30;99.90;;;;;;5011930;28;20121;-55
2024/01/11 00:48:49;;;;;;;33.93;10.33;;;-4.30;99.90;;;;;;5011826;28;20403;-55
2024/01/11 00:51:15;;;;;;;28.63;9.07;;;-4.30;99.90;;;;;;5011780;28;20026;-51
2024/01/11 00:53:41;;;;;;;28.40;9.37;;;-4.30;99.90;;;;;;5011920;28;20038;-55
2024/01/11 00:56:16;;;;;;;32.60;11.57;;;-4.30;99.90;;;;;;5011850;28;21059;-55
2024/01/11 00:58:41;;;;;;;24.40;9.87;;;-4.30;99.90;;;;;;5011816;28;20025;-55
2024/01/11 01:01:09;;;;;;;35.53;10.03;;;-4.30;99.90;;;;;;5011701;28;20432;-53
2024/01/11 01:03:35;;;;;;;33.57;11.43;;;-4.30;99.90;;;;;;5010447;28;20049;-55
2024/01/11 01:06:01;;;;;;;34.10;9.93;;;-4.40;99.90;;;;;;5011783;28;20428;-54
2024/01/11 01:08:27;;;;;;;24.17;9.20;;;-4.40;99.90;;;;;;5011696;28;20479;-54
2024/01/11 01:10:53;;;;;;;33.23;10.57;;;-4.50;99.90;;;;;;5011448;28;20448;-53
2024/01/11 01:13:18;;;;;;;27.10;9.97;;;-4.50;99.90;;;;;;5011571;28;20069;-55
2024/01/11 01:15:44;;;;;;;26.60;9.83;;;-4.50;99.90;;;;;;5011747;28;20034;-54
2024/01/11 01:18:09;;;;;;;29.37;9.87;;;-4.50;99.90;;;;;;5011567;28;20033;-52
2024/01/11 01:20:35;;;;;;;28.37;9.87;;;-4.50;99.90;;;;;;5011459;28;20026;-55
2024/01/11 01:23:01;;;;;;;28.70;9.57;;;-4.50;99.90;;;;;;5011626;28;20064;-53
2024/01/11 01:25:27;;;;;;;30.40;10.57;;;-4.60;99.90;;;;;;5011648;28;20518;-53
2024/01/11 01:27:52;;;;;;;33.87;10.60;;;-4.60;99.90;;;;;;5011553;28;20468;-54
2024/01/11 01:30:18;;;;;;;33.73;9.93;;;-4.60;99.90;;;;;;5011445;28;20048;-56
2024/01/11 01:32:43;;;;;;;28.40;10.93;;;-4.60;99.90;;;;;;5012569;28;20395;-50
2024/01/11 01:35:09;;;;;;;36.10;11.80;;;-4.60;99.90;;;;;;5015049;28;20057;-53
2024/01/11 01:37:34;;;;;;;33.07;9.73;;;-4.60;99.90;;;;;;5015056;28;20506;-57
2024/01/11 01:40:00;;;;;;;41.87;12.20;;;-4.60;99.90;;;;;;5013644;28;20022;-55
2024/01/11 01:42:26;;;;;;;29.30;9.63;;;-4.70;99.90;;;;;;5014939;28;20487;-54
2024/01/11 01:44:51;;;;;;;24.77;11.53;;;-4.70;99.90;;;;;;5014992;28;20509;-54
2024/01/11 01:47:18;;;;;;;38.40;10.67;;;-4.70;99.90;;;;;;5014777;28;20112;-52
2024/01/11 01:49:45;;;;;;;35.43;11.30;;;-4.70;99.90;;;;;;5014532;28;20479;-51
2024/01/11 01:52:14;;;;;;;31.17;10.30;;;-4.70;99.90;;;;;;5014627;28;20429;-51
2024/01/11 01:54:40;;;;;;;30.52;10.43;;;-4.70;99.90;;;;;;5013332;28;20469;-50
2024/01/11 01:57:07;;;;;;;35.00;10.97;;;-4.70;99.90;;;;;;5014752;28;20030;-53
2024/01/11 01:59:33;;;;;;;29.87;10.80;;;-4.70;99.90;;;;;;5013244;28;20430;-53
2024/01/11 02:01:59;;;;;;;32.80;11.67;;;-4.70;99.90;;;;;;5014946;28;20483;-53
2024/01/11 02:04:26;;;;;;;33.40;10.70;;;-4.70;99.90;;;;;;5014545;28;20494;-52
2024/01/11 02:06:54;;;;;;;35.83;11.53;;;-4.70;99.90;;;;;;5014511;28;20502;-55
2024/01/11 02:09:19;;;;;;;33.13;11.90;;;-4.70;99.90;;;;;;5014234;28;20464;-51
2024/01/11 02:11:45;;;;;;;28.60;9.97;;;-4.70;99.90;;;;;;5014374;28;21016;-54
2024/01/11 02:14:10;;;;;;;31.53;9.63;;;-4.70;99.90;;;;;;5014279;28;20120;-53
2024/01/11 02:16:37;;;;;;;35.80;10.77;;;-4.70;99.90;;;;;;5014295;28;20032;-55
2024/01/11 02:19:06;;;;;;;32.23;10.83;;;-4.70;99.90;;;;;;5014136;28;20022;-54
2024/01/11 02:21:33;;;;;;;27.17;9.73;;;-4.70;99.90;;;;;;5014094;28;20551;-52
2024/01/11 02:24:06;;;;;;;34.77;11.07;;;-4.70;99.90;;;;;;5014059;28;20517;-53
2024/01/11 02:26:33;;;;;;;35.07;12.00;;;-4.80;99.90;;;;;;5014194;28;20460;-54
2024/01/11 02:28:58;;;;;;;32.47;11.60;;;-4.80;99.90;;;;;;5014457;28;20451;-53
2024/01/11 02:31:25;;;;;;;42.97;12.60;;;-4.80;99.90;;;;;;5013926;28;20457;-57
2024/01/11 02:33:52;;;;;;;43.83;12.93;;;-4.80;99.90;;;;;;5012649;28;20366;-55
2024/01/11 02:36:19;;;;;;;30.40;11.17;;;-4.80;99.90;;;;;;5014134;28;20432;-54
2024/01/11 02:38:45;;;;;;;32.33;11.03;;;-4.80;99.90;;;;;;5013768;28;20470;-57
2024/01/11 02:41:13;;;;;;;32.03;11.33;;;-4.80;99.90;;;;;;5013677;28;20782;-55
2024/01/11 02:43:39;;;;;;;40.40;11.37;;;-4.90;99.90;;;;;;5013320;28;20042;-53
2024/01/11 02:46:04;;;;;;;26.83;9.73;;;-4.90;99.90;;;;;;5013806;28;20439;-53
2024/01/11 02:48:30;;;;;;;39.43;12.73;;;-4.90;99.90;;;;;;5013707;28;20437;-54
2024/01/11 02:50:57;;;;;;;33.97;11.97;;;-4.90;99.90;;;;;;5013396;28;20034;-50
2024/01/11 02:53:23;;;;;;;34.77;10.77;;;-4.90;99.90;;;;;;5013539;28;20088;-54
2024/01/11 02:55:50;;;;;;;32.03;11.50;;;-4.90;99.90;;;;;;5013631;28;20794;-53
2024/01/11 02:58:16;;;;;;;34.90;11.37;;;-4.90;99.90;;;;;;5013503;28;20805;-55
2024/01/11 03:00:41;;;;;;;35.70;12.53;;;-5.00;99.90;;;;;;5013383;28;20452;-54
2024/01/11 03:03:07;;;;;;;37.13;11.93;;;-5.00;99.90;;;;;;5013412;28;20030;-55
2024/01/11 03:05:32;;;;;;;34.10;11.37;;;-5.00;99.90;;;;;;5013461;28;20383;-55
2024/01/11 03:07:58;;;;;;;32.23;11.50;;;-5.00;99.90;;;;;;5013404;28;20391;-55
2024/01/11 03:10:24;;;;;;;32.80;11.00;;;-5.00;99.90;;;;;;5013259;28;20049;-55
2024/01/11 03:12:50;;;;;;;36.67;11.07;;;-5.00;99.90;;;;;;5012108;28;20030;-50
2024/01/11 03:15:16;;;;;;;34.03;11.90;;;-5.00;99.90;;;;;;5013258;28;20507;-51
2024/01/11 03:17:41;;;;;;;37.70;11.33;;;-5.00;99.90;;;;;;5013139;28;20048;-53
2024/01/11 03:20:07;;;;;;;36.60;12.03;;;-5.00;99.90;;;;;;5012887;28;20394;-52
2024/01/11 03:22:33;;;;;;;35.27;11.10;;;-5.10;99.90;;;;;;5013055;28;20045;-53
2024/01/11 03:24:59;;;;;;;28.27;12.03;;;-5.10;99.90;;;;;;5012931;28;20445;-52
2024/01/11 03:27:25;;;;;;;36.53;12.27;;;-5.10;99.90;;;;;;5012943;28;20958;-54
2024/01/11 03:29:50;;;;;;;36.63;11.97;;;-5.10;99.90;;;;;;5012765;28;20105;-50
2024/01/11 03:32:16;;;;;;;34.03;11.63;;;-5.20;99.90;;;;;;5012935;28;20084;-51
2024/01/11 03:34:42;;;;;;;30.97;11.53;;;-5.20;99.90;;;;;;5012794;28;20067;-56
2024/01/11 03:37:07;;;;;;;34.87;12.10;;;-5.30;99.90;;;;;;5012817;28;20505;-54
2024/01/11 03:39:34;;;;;;;37.97;12.17;;;-5.30;99.90;;;;;;5012495;28;20026;-53
2024/01/11 03:41:59;;;;;;;38.70;12.83;;;-5.30;99.90;;;;;;5012606;28;20040;-51
2024/01/11 03:44:25;;;;;;;32.27;12.27;;;-5.30;99.90;;;;;;5012708;28;20429;-53
2024/01/11 03:46:51;;;;;;;38.10;11.43;;;-5.30;99.90;;;;;;5015797;28;20449;-54
2024/01/11 03:49:17;;;;;;;31.40;11.63;;;-5.30;99.90;;;;;;5009424;28;20489;-50
2024/01/11 03:51:44;;;;;;;36.20;11.10;;;-5.30;99.90;;;;;;5012201;28;20514;-53
2024/01/11 03:54:09;;;;;;;34.13;12.20;;;-5.40;99.90;;;;;;5012239;28;20030;-52
2024/01/11 03:56:39;;;;;;;34.30;12.07;;;-5.40;99.90;;;;;;5012054;28;20448;-50
2024/01/11 03:59:05;;;;;;;31.65;11.07;;;-5.40;99.90;;;;;;5012130;28;20037;-51
2024/01/11 04:01:31;;;;;;;25.87;10.33;;;-5.40;99.90;;;;;;5012037;28;20057;-49
2024/01/11 04:03:57;;;;;;;30.37;9.70;;;-5.40;99.90;;;;;;5010886;28;20476;-52
2024/01/11 04:06:24;;;;;;;35.97;11.53;;;-5.40;99.90;;;;;;5012154;28;20398;-54
2024/01/11 04:08:50;;;;;;;41.57;11.90;;;-5.40;99.90;;;;;;5011994;28;20522;-51
2024/01/11 04:11:16;;;;;;;36.97;11.57;;;-5.40;99.90;;;;;;5011999;28;20428;-54
2024/01/11 04:13:42;;;;;;;27.97;10.67;;;-5.40;99.90;;;;;;5011198;28;20538;-52
2024/01/11 04:16:09;;;;;;;37.60;11.53;;;-5.50;99.90;;;;;;5012368;28;20505;-53
2024/01/11 04:18:34;;;;;;;33.00;11.13;;;-5.40;99.90;;;;;;5012225;28;20511;-52
2024/01/11 04:21:00;;;;;;;27.43;10.57;;;-5.50;99.90;;;;;;5011891;28;20495;-54
2024/01/11 04:23:25;;;;;;;31.57;11.10;;;-5.50;99.90;;;;;;5011597;28;20054;-54
2024/01/11 04:25:51;;;;;;;42.30;12.33;;;-5.50;99.90;;;;;;5011761;28;20049;-51
2024/01/11 04:28:17;;;;;;;36.77;13.00;;;-5.50;99.90;;;;;;5011752;28;20044;-50
2024/01/11 04:30:43;;;;;;;32.17;11.37;;;-5.50;99.90;;;;;;5011693;28;20199;-54
2024/01/11 04:33:09;;;;;;;32.37;10.43;;;-5.50;99.90;;;;;;5011552;28;20033;-53
2024/01/11 04:35:35;;;;;;;32.57;11.23;;;-5.50;99.90;;;;;;5011788;28;20026;-51
2024/01/11 04:38:00;;;;;;;31.67;11.83;;;-5.50;99.90;;;;;;5010636;28;20455;-53
2024/01/11 04:40:26;;;;;;;31.50;11.40;;;-5.60;99.90;;;;;;5011755;28;20026;-54
2024/01/11 04:42:52;;;;;;;32.87;10.57;;;-5.60;99.90;;;;;;5011853;28;20157;-52
2024/01/11 04:45:17;;;;;;;36.67;12.40;;;-5.60;99.90;;;;;;5012074;28;20041;-53
2024/01/11 04:47:43;;;;;;;34.53;10.57;;;-5.60;99.90;;;;;;5011727;28;20034;-49
2024/01/11 04:50:09;;;;;;;39.87;12.23;;;-5.70;99.90;;;;;;5012203;28;20115;-51
2024/01/11 04:52:34;;;;;;;27.97;11.10;;;-5.60;99.90;;;;;;5012010;28;20026;-52
2024/01/11 04:55:00;;;;;;;35.63;10.73;;;-5.60;99.90;;;;;;5011741;28;20143;-51
2024/01/11 04:57:26;;;;;;;32.63;11.03;;;-5.60;99.90;;;;;;5012050;28;20121;-54
2024/01/11 04:59:53;;;;;;;42.03;10.50;;;-5.60;99.90;;;;;;5010461;28;20056;-51
2024/01/11 05:02:20;;;;;;;31.53;11.03;;;-5.70;99.90;;;;;;5012024;28;20475;-51
2024/01/11 05:04:47;;;;;;;29.17;10.23;;;-5.70;99.90;;;;;;5011982;28;21011;-51
2024/01/11 05:07:13;;;;;;;35.77;10.47;;;-5.70;99.90;;;;;;5014017;28;20444;-54
2024/01/11 05:09:38;;;;;;;32.27;11.10;;;-5.70;99.90;;;;;;5015374;28;20448;-54
2024/01/11 05:12:04;;;;;;;29.33;10.67;;;-5.70;99.90;;;;;;5015610;28;20033;-50
2024/01/11 05:14:30;;;;;;;36.97;11.13;;;-5.70;99.90;;;;;;5015618;28;20084;-50
2024/01/11 05:16:56;;;;;;;37.33;12.27;;;-5.70;99.90;;;;;;5014318;28;20112;-51
2024/01/11 05:19:21;;;;;;;31.87;10.13;;;-5.70;99.90;;;;;;5015318;28;20040;-51
2024/01/11 05:21:47;;;;;;;35.70;11.73;;;-5.70;99.90;;;;;;5015628;28;20475;-50
2024/01/11 05:24:13;;;;;;;38.30;10.93;;;-5.80;99.90;;;;;;5015238;28;20030;-53
2024/01/11 05:26:38;;;;;;;31.17;11.00;;;-5.80;99.90;;;;;;5015438;28;20124;-52
2024/01/11 05:29:04;;;;;;;36.90;11.00;;;-5.80;99.90;;;;;;5015292;28;20172;-52
2024/01/11 05:31:30;;;;;;;35.03;11.33;;;-5.80;99.90;;;;;;5015266;28;20117;-49
2024/01/11 05:33:56;;;;;;;37.87;11.23;;;-5.80;99.90;;;;;;5015071;28;20063;-49
2024/01/11 05:36:21;;;;;;;37.57;10.70;;;-5.90;99.90;;;;;;5015285;28;20030;-52
2024/01/11 05:38:47;;;;;;;32.00;10.93;;;-5.90;99.90;;;;;;5014819;28;20030;-53
2024/01/11 05:41:13;;;;;;;38.20;12.50;;;-5.80;99.90;;;;;;5014980;28;20117;-49
2024/01/11 05:43:40;;;;;;;37.33;11.30;;;-5.80;99.90;;;;;;5015095;28;20091;-53
2024/01/11 05:46:06;;;;;;;36.80;11.63;;;-5.80;99.90;;;;;;5013762;28;20200;-51
2024/01/11 05:48:32;;;;;;;31.93;11.43;;;-5.80;99.90;;;;;;5015190;28;20444;-49
2024/01/11 05:50:59;;;;;;;38.40;11.40;;;-5.90;99.90;;;;;;5014707;28;20862;-49
2024/01/11 05:53:27;;;;;;;39.43;11.30;;;-5.90;99.90;;;;;;5014705;28;20040;-51
2024/01/11 05:55:53;;;;;;;34.90;11.70;;;-5.90;99.90;;;;;;5014854;28;20445;-52
2024/01/11 05:58:19;;;;;;;34.73;10.10;;;-5.90;99.90;;;;;;5014698;28;20428;-49
2024/01/11 06:00:45;;;;;;;45.03;12.23;;;-5.90;99.90;;;;;;5014308;28;20030;-52
2024/01/11 06:03:12;;;;;;;34.13;10.77;;;-5.90;99.90;;;;;;5014378;28;20463;-51
2024/01/11 06:05:37;;;;;;;26.90;10.13;;;-5.90;99.90;;;;;;5013654;28;20026;-52
2024/01/11 06:08:03;;;;;;;29.13;11.03;;;-5.90;99.90;;;;;;5014667;28;20767;-51
2024/01/11 06:10:30;;;;;;;33.03;12.73;;;-5.90;99.90;;;;;;5014324;28;20045;-51
2024/01/11 06:12:56;;;;;;;34.63;11.30;;;-5.90;99.90;;;;;;5014496;28;20029;-51
2024/01/11 06:15:22;;;;;;;31.93;11.17;;;-5.90;99.90;;;;;;5014440;28;20863;-52
2024/01/11 06:17:47;;;;;;;37.47;12.23;;;-5.90;99.90;;;;;;5014032;28;20076;-52
2024/01/11 06:20:13;;;;;;;34.77;12.03;;;-5.90;99.90;;;;;;5014073;28;20045;-51
2024/01/11 06:22:39;;;;;;;29.97;10.67;;;-5.90;99.90;;;;;;5014530;28;20038;-50
2024/01/11 06:25:05;;;;;;;33.93;12.07;;;-5.90;99.90;;;;;;5017556;28;20030;-50
2024/01/11 06:27:30;;;;;;;35.60;12.47;;;-6.00;99.90;;;;;;5041861;28;20033;-49
2024/01/11 06:29:56;;;;;;;33.13;10.50;;;-6.00;99.90;;;;;;5041876;28;20451;-51
2024/01/11 06:32:21;;;;;;;31.70;12.10;;;-5.90;99.90;;;;;;5038728;28;20084;-50
2024/01/11 06:34:47;;;;;;;29.40;11.80;;;-5.90;99.90;;;;;;5034176;28;20034;-52
2024/01/11 06:37:13;;;;;;;29.67;11.30;;;-5.90;99.90;;;;;;5034182;28;20038;-51
2024/01/11 06:39:39;;;;;;;33.13;11.37;;;-5.90;99.90;;;;;;5034198;28;20022;-50
2024/01/11 06:42:04;;;;;;;37.17;11.80;;;-6.00;99.90;;;;;;5033852;28;20518;-50
2024/01/11 06:44:31;;;;;;;36.60;10.90;;;-6.00;99.90;;;;;;5033991;28;20120;-49
2024/01/11 06:46:56;;;;;;;35.23;10.60;;;-5.90;99.90;;;;;;5034875;28;20085;-54
2024/01/11 06:49:22;;;;;;;36.97;12.47;;;-6.00;99.90;;;;;;5035363;28;20547;-53
2024/01/11 06:51:48;;;;;;;32.23;11.10;;;-5.90;99.90;;;;;;5034931;28;20103;-53
2024/01/11 06:54:13;;;;;;;32.53;11.33;;;-6.00;99.90;;;;;;5035217;28;20025;-55
2024/01/11 06:56:39;;;;;;;33.03;11.43;;;-6.00;99.90;;;;;;5035180;28;20036;-52
2024/01/11 06:59:04;;;;;;;31.00;10.43;;;-6.00;99.90;;;;;;5035407;28;20029;-52
2024/01/11 07:01:30;;;;;;;33.63;10.90;;;-6.00;99.90;;;;;;5034854;28;20038;-52
2024/01/11 07:03:56;;;;;;;38.37;11.53;;;-6.00;99.90;;;;;;5034017;28;20033;-49
2024/01/11 07:06:21;;;;;;;37.67;12.23;;;-6.00;99.90;;;;;;5035487;28;20037;-55
2024/01/11 07:08:47;;;;;;;36.47;10.70;;;-5.90;99.90;;;;;;5034839;28;20037;-53
2024/01/11 07:11:13;;;;;;;30.33;10.27;;;-6.00;99.90;;;;;;5034112;28;20057;-51
2024/01/11 07:13:38;;;;;;;27.90;9.73;;;-5.90;99.90;;;;;;5033329;28;20057;-49
2024/01/11 07:16:05;;;;;;;32.00;11.87;;;-5.90;99.90;;;;;;5033917;28;20363;-50
2024/01/11 07:18:31;;;;;;;35.07;10.57;;;-5.90;99.90;;;;;;5035476;28;20068;-48
2024/01/11 07:21:00;;;;;;;28.87;9.83;;;-6.00;99.90;;;;;;5035874;28;20424;-53
2024/01/11 07:23:27;;;;;;;40.45;12.50;;;-6.00;99.90;;;;;;5035019;28;20069;-55
2024/01/11 07:25:52;;;;;;;40.67;12.10;;;-6.00;99.90;;;;;;5036716;28;20041;-54
2024/01/11 07:28:19;;;;;;;39.47;11.87;;;-6.00;99.90;;;;;;5036283;28;20501;-55
2024/01/11 07:30:46;;;;;;;41.63;11.73;;;-6.00;99.90;;;;;;5034392;28;20036;-54
2024/01/11 07:33:11;;;;;;;29.23;10.53;;;-6.00;99.90;;;;;;5035043;28;20446;-52
2024/01/11 07:35:37;;;;;;;33.37;11.10;;;-5.90;99.90;;;;;;5035130;28;20436;-54
2024/01/11 07:38:03;;;;;;;38.03;12.67;;;-5.90;99.90;;;;;;5034599;28;20021;-53
2024/01/11 07:40:29;;;;;;;33.33;10.97;;;-5.90;99.90;;;;;;5034190;28;20521;-55
2024/01/11 07:42:54;;;;;;;32.50;11.63;;;-5.90;99.90;;;;;;5034423;28;20036;-55
2024/01/11 07:45:20;;;;;;;30.33;11.13;;;-5.80;99.90;;;;;;5034076;28;20060;-53
2024/01/11 07:47:45;;;;;;;30.00;10.97;;;-5.80;99.90;;;;;;5033920;28;20474;-55
2024/01/11 07:50:12;;;;;;;34.57;11.67;;;-5.80;99.90;;;;;;5034264;28;20075;-54
2024/01/11 07:52:37;;;;;;;37.17;11.87;;;-5.80;99.90;;;;;;5034325;28;20112;-54
2024/01/11 07:55:07;;;;;;;33.03;11.97;;;-5.80;99.90;;;;;;5034444;28;20551;-53
2024/01/11 07:57:34;;;;;;;29.70;12.23;;;-5.90;99.90;;;;;;5033217;28;20030;-54
2024/01/11 08:00:00;;;;;;;37.90;12.47;;;-5.90;99.90;;;;;;5034086;28;20440;-51
2024/01/11 08:02:26;;;;;;;30.50;12.03;;;-5.80;99.90;;;;;;5033830;28;20432;-52
2024/01/11 08:04:52;;;;;;;37.27;12.83;;;-5.80;99.90;;;;;;5034139;28;20505;-52
2024/01/11 08:07:17;;;;;;;38.77;11.93;;;-5.80;99.90;;;;;;5033762;28;20041;-54
2024/01/11 08:09:45;;;;;;;32.87;13.07;;;-5.80;99.90;;;;;;5033434;28;20100;-54
2024/01/11 08:12:17;;;;;;;39.23;13.43;;;-5.80;99.90;;;;;;5034173;28;20038;-53
2024/01/11 08:14:42;;;;;;;32.57;11.40;;;-5.80;99.90;;;;;;5033471;28;20455;-53
2024/01/11 08:17:09;;;;;;;31.67;10.93;;;-5.70;99.90;;;;;;5034441;28;20435;-52
2024/01/11 08:19:35;;;;;;;40.50;12.77;;;-5.70;99.90;;;;;;5033569;28;20025;-53
2024/01/11 08:22:00;;;;;;;32.83;11.57;;;-5.60;99.90;;;;;;5033607;28;20459;-54
2024/01/11 08:24:26;;;;;;;30.97;11.20;;;-5.60;99.90;;;;;;5033751;28;20490;-53
2024/01/11 08:26:52;;;;;;;34.67;11.33;;;-5.50;99.90;;;;;;5033320;28;20029;-54
2024/01/11 08:29:22;;;;;;;36.17;12.80;;;-5.50;99.90;;;;;;5032982;28;20044;-54
2024/01/11 08:31:48;;;;;;;26.73;11.05;;;-5.40;99.90;;;;;;5032920;28;20440;-54
2024/01/11 08:34:14;;;;;;;42.57;13.57;;;-5.40;99.90;;;;;;5033434;28;20029;-54
2024/01/11 08:36:39;;;;;;;28.80;10.73;;;-5.30;99.90;;;;;;5033606;28;20447;-52
2024/01/11 08:39:06;;;;;;;34.13;13.30;;;-5.30;99.90;;;;;;5033457;28;20080;-55
2024/01/11 08:41:32;;;;;;;31.53;11.67;;;-5.30;99.90;;;;;;5034089;28;20064;-55
2024/01/11 08:43:58;;;;;;;33.57;11.93;;;-5.20;99.90;;;;;;5037162;28;20805;-56
2024/01/11 08:46:28;;;;;;;39.53;13.17;;;-5.10;99.90;;;;;;5037479;28;20436;-53
2024/01/11 08:48:56;;;;;;;39.03;12.32;;;-5.10;99.90;;;;;;5037546;28;20431;-55
2024/01/11 08:51:22;;;;;;;33.97;10.00;;;-5.00;99.90;;;;;;5037222;28;20069;-53
2024/01/11 08:53:48;;;;;;;40.33;11.80;;;-5.00;99.90;;;;;;5037545;28;20495;-54
2024/01/11 08:56:16;;;;;;;33.40;11.83;;;-4.90;99.90;;;;;;5037494;28;20597;-55
2024/01/11 08:58:41;;;;;;;43.50;13.30;;;-4.80;99.90;;;;;;5037196;28;20037;-51
2024/01/11 09:01:08;;;;;;;41.47;12.93;;;-4.80;99.90;;;;;;5036915;28;20411;-54
2024/01/11 09:03:35;;;;;;;42.13;14.20;;;-4.70;99.90;;;;;;5036959;28;20441;-55
2024/01/11 09:06:01;;;;;;;36.33;11.57;;;-4.70;99.90;;;;;;5037155;28;20432;-55
2024/01/11 09:08:26;;;;;;;41.07;13.57;;;-4.60;99.90;;;;;;5036581;28;20431;-54
2024/01/11 09:10:53;;;;;;;34.67;12.87;;;-4.60;99.90;;;;;;5036451;28;20117;-54
2024/01/11 09:13:18;;;;;;;36.47;12.40;;;-4.60;99.90;;;;;;5036245;28;20037;-51
2024/01/11 09:15:44;;;;;;;35.03;11.37;;;-4.50;99.90;;;;;;5036475;28;20430;-53
2024/01/11 09:18:10;;;;;;;34.50;12.73;;;-4.50;99.90;;;;;;5037417;28;20383;-55
2024/01/11 09:20:35;;;;;;;38.27;11.93;;;-4.50;99.90;;;;;;5035589;28;20371;-53
2024/01/11 09:23:04;;;;;;;35.50;11.90;;;-4.40;99.90;;;;;;5035883;28;20426;-50
2024/01/11 09:25:33;;;;;;;40.77;12.33;;;-4.40;99.90;;;;;;5035673;28;20026;-51
2024/01/11 09:27:59;;;;;;;33.10;12.07;;;-4.30;99.90;;;;;;5035299;28;20490;-53
2024/01/11 09:30:25;;;;;;;32.50;12.43;;;-4.20;99.90;;;;;;5035027;28;20899;-52
2024/01/11 09:32:50;;;;;;;37.37;12.30;;;-4.10;99.90;;;;;;5035206;28;20523;-53
2024/01/11 09:35:16;;;;;;;39.70;13.40;;;-4.10;99.90;;;;;;5035365;28;20417;-51
2024/01/11 09:37:46;;;;;;;34.30;12.17;;;-3.90;99.90;;;;;;5034955;28;20037;-55
2024/01/11 09:40:12;;;;;;;;;;;-3.80;99.90;;;;;;5035470;28;20042;-50
2024/01/11 09:42:38;;;;;;;34.27;11.03;;;-3.80;99.90;;;;;;5034909;28;19909;-52
2024/01/11 09:45:13;;;;;;;33.23;12.03;;;-3.70;99.90;;;;;;5034914;28;20442;-55
2024/01/11 09:47:40;;;;;;;41.20;13.90;;;-3.60;99.90;;;;;;5034925;28;20475;-54
2024/01/11 09:50:07;;;;;;;35.07;12.27;;;-3.50;99.90;;;;;;5034526;28;20428;-54
2024/01/11 09:52:33;;;;;;;40.87;12.80;;;-3.50;99.90;;;;;;5034086;28;20773;-53
2024/01/11 09:54:59;;;;;;;45.20;14.40;;;-3.40;99.90;;;;;;5034034;28;20455;-52
2024/01/11 09:57:29;;;;;;;30.80;12.57;;;-3.30;99.90;;;;;;5035010;28;20819;-53
2024/01/11 09:59:57;;;;;;;42.53;13.27;;;-3.10;99.90;;;;;;5034602;28;20808;-49
2024/01/11 10:02:26;;;;;;;42.53;12.93;;;-2.80;99.90;;;;;;5033185;28;20539;-53
2024/01/11 10:04:52;;;;;;;34.15;12.32;;;-2.00;99.90;;;;;;5034501;28;20439;-52
2024/01/11 10:07:22;;;;;;;38.30;13.57;;;-0.80;99.90;;;;;;5033250;28;20394;-55
2024/01/11 10:09:48;;;;;;;39.60;14.85;;;0.50;99.90;;;;;;5032981;28;20144;-54
2024/01/11 10:12:14;;;;;;;39.30;14.27;;;1.90;99.90;;;;;;5034504;28;20025;-51
2024/01/11 10:14:39;;;;;;;41.60;15.60;;;3.20;99.90;;;;;;5034135;28;20136;-53
2024/01/11 10:17:06;;;;;;;39.53;15.27;;;3.70;99.00;;;;;;5034471;28;20098;-53
2024/01/11 10:19:32;;;;;;;36.73;16.37;;;4.40;97.90;;;;;;5033989;28;20032;-51
2024/01/11 10:21:58;;;;;;;38.20;17.07;;;5.10;96.30;;;;;;5034068;28;20475;-52
2024/01/11 10:24:26;;;;;;;35.83;16.50;;;5.70;95.10;;;;;;5032663;28;20045;-50
2024/01/11 10:26:55;;;;;;;38.53;17.03;;;6.30;93.20;;;;;;5034061;28;20079;-54
2024/01/11 10:29:21;;;;;;;34.30;16.10;;;6.70;92.20;;;;;;5033991;28;20083;-54
2024/01/11 10:31:47;;;;;;;37.47;16.43;;;6.80;91.60;;;;;;5034014;28;20071;-55
2024/01/11 10:34:12;;;;;;;35.67;17.87;;;6.80;91.50;;;;;;5034076;28;20033;-53
2024/01/11 10:36:40;;;;;;;38.90;17.38;;;7.10;91.10;;;;;;5034100;28;20036;-55
2024/01/11 10:39:09;;;;;;;37.40;16.95;;;7.50;90.30;;;;;;5033876;28;20038;-54
2024/01/11 10:41:41;;;;;;;35.10;17.67;;;7.90;89.70;;;;;;5033767;28;20033;-51
2024/01/11 10:44:18;;;;;;;37.75;18.45;;;8.50;88.40;;;;;;5033925;28;20380;-55
2024/01/11 10:46:45;;;;;;;35.88;18.02;;;8.60;85.10;;;;;;5034259;28;20030;-50
2024/01/11 10:49:16;;;;;;;39.05;18.70;;;8.70;84.80;;;;;;5033545;28;20478;-52
2024/01/11 10:51:52;;;;;;;34.17;17.27;;;8.70;83.50;;;;;;5033540;28;20045;-51
2024/01/11 10:54:21;;;;;;;37.00;18.42;;;8.70;82.70;;;;;;5033470;28;20475;-54
2024/01/11 10:56:48;;;;;;;35.63;17.48;;;8.90;82.20;;;;;;5033423;28;20029;-53
2024/01/11 10:59:14;;;;;;;36.97;18.40;;;8.90;81.10;;;;;;5033254;28;20451;-53
2024/01/11 11:01:41;;;;;;;37.13;18.17;;;8.90;81.80;;;;;;5033198;28;20037;-54
2024/01/11 11:04:08;;;;;;;35.22;18.38;;;8.80;81.90;;;;;;5033160;28;20029;-55
2024/01/11 11:06:36;;;;;;;38.00;17.77;;;9.30;79.90;;;;;;5033385;28;20029;-54
2024/01/11 11:09:03;;;;;;;34.30;17.35;;;9.10;79.20;;;;;;5033169;28;20087;-54
2024/01/11 11:11:31;;;;;;;34.70;17.27;;;8.80;79.40;;;;;;5031878;28;20026;-54
2024/01/11 11:14:00;;;;;;;38.10;17.20;;;8.40;80.50;;;;;;5033047;28;20383;-54
2024/01/11 11:16:26;;;;;;;34.45;17.65;;;7.80;81.50;;;;;;5033177;28;20053;-51
2024/01/11 11:18:55;;;;;;;39.50;18.27;;;7.70;81.70;;;;;;5033105;28;20094;-54
2024/01/11 11:21:21;;;;;;;35.13;16.75;;;7.50;81.40;;;;;;5033016;28;20247;-55
2024/01/11 11:23:48;;;;;;;36.00;16.70;;;7.30;81.70;;;;;;5032900;28;20038;-53
2024/01/11 11:26:19;;;;;;;37.80;17.10;;;6.70;82.70;;;;;;5033053;28;20040;-54
2024/01/11 11:28:48;;;;;;;37.67;16.90;;;6.50;84.80;;;;;;5032858;28;20406;-54
2024/01/11 11:31:13;;;;;;;35.05;15.85;;;6.20;84.60;;;;;;5031552;28;20124;-54
2024/01/11 11:33:40;;;;;;;34.63;16.67;;;6.40;85.20;;;;;;5032708;28;20116;-54
2024/01/11 11:36:12;;;;;;;33.78;15.88;;;6.50;84.10;;;;;;5033089;28;20442;-55
2024/01/11 11:38:38;;;;;;;35.03;15.77;;;6.70;83.40;;;;;;5032750;28;20029;-55
2024/01/11 11:41:04;;;;;;;33.80;15.52;;;6.90;83.10;;;;;;5032694;28;20025;-54
2024/01/11 11:43:31;;;;;;;29.08;14.98;;;7.10;81.10;;;;;;5032730;28;20040;-55
2024/01/11 11:45:57;;;;;;;32.35;15.30;;;6.80;81.00;;;;;;5032951;28;20048;-54
2024/01/11 11:48:29;;;;;;;31.48;16.20;;;5.80;83.30;;;;;;5032566;28;20037;-54
2024/01/11 11:51:21;;;;;;;34.70;15.47;;;5.10;86.30;;;;;;5032563;28;20063;-53
2024/01/11 11:53:48;;;;;;;30.07;14.53;;;4.30;88.50;;;;;;5031511;28;20037;-54
2024/01/11 11:56:16;;;;;;;34.07;14.63;;;3.90;90.20;;;;;;5032585;28;20434;-54
2024/01/11 11:58:43;;;;;;;33.57;14.63;;;3.80;90.60;;;;;;5032572;28;20033;-52
2024/01/11 12:01:09;;;;;;;33.77;14.97;;;4.30;90.60;;;;;;5032714;28;20100;-55
2024/01/11 12:03:41;;;;;;;33.63;14.53;;;5.00;90.00;;;;;;5032711;28;20040;-52
2024/01/11 12:06:09;;;;;;;31.63;14.50;;;5.60;87.10;;;;;;5032766;28;20060;-53
2024/01/11 12:08:35;;;;;;;28.70;13.73;;;5.90;85.80;;;;;;5030857;28;20044;-52
2024/01/11 12:11:02;;;;;;;32.87;14.27;;;5.70;85.10;;;;;;5032382;28;20091;-54
2024/01/11 12:13:28;;;;;;;28.20;13.53;;;5.50;85.10;;;;;;5032459;28;20052;-54
2024/01/11 12:15:55;;;;;;;29.03;13.37;;;4.80;86.10;;;;;;5032227;28;20475;-53
2024/01/11 12:18:20;;;;;;;32.20;14.13;;;4.40;88.20;;;;;;5032752;28;20439;-51
2024/01/11 12:20:46;;;;;;;35.10;13.23;;;3.90;89.90;;;;;;5032402;28;20053;-53
2024/01/11 12:23:13;;;;;;;35.07;13.03;;;3.40;91.40;;;;;;5032426;28;20025;-51
2024/01/11 12:25:40;;;;;;;33.97;13.20;;;3.40;91.40;;;;;;5031079;28;20283;-51